createdAt,value
2023-04-02T00:01:01.808Z,57.64
2023-04-02T00:03:45.982Z,57.93
2023-04-02T00:06:33.310Z,57.13
2023-04-02T00:09:23.333Z,57.46
2023-04-02T00:11:55.795Z,56.85
2023-04-02T00:14:34.286Z,56.51
2023-04-02T00:17:06.339Z,56.39
2023-04-02T00:20:01.681Z,56.92
2023-04-02T00:22:34.015Z,55.56
2023-04-02T00:25:13.568Z,54.26
2023-04-02T00:27:45.940Z,53.14
2023-04-02T00:30:17.703Z,52.43
2023-04-02T00:32:49.601Z,51.68
2023-04-02T00:35:29.096Z,53.15
2023-04-02T00:38:02.241Z,54.16
2023-04-02T00:40:33.835Z,53.64
2023-04-02T00:43:06.906Z,53.50
2023-04-02T00:45:39.052Z,52.87
2023-04-02T00:48:50.559Z,55.18
2023-04-02T00:51:38.495Z,53.59
2023-04-02T00:54:15.813Z,53.02
2023-04-02T00:56:51.777Z,53.25
2023-04-02T00:59:42.696Z,53.62
2023-04-02T01:02:14.787Z,53.56
2023-04-02T01:04:53.765Z,54.31
2023-04-02T01:07:55.793Z,54.14
2023-04-02T01:10:56.098Z,53.85
2023-04-02T01:13:53.975Z,53.29
2023-04-02T01:16:31.990Z,54.74
2023-04-02T01:19:58.448Z,54.24
2023-04-02T01:22:55.016Z,54.66
2023-04-02T01:25:55.259Z,54.09
2023-04-02T01:28:55.881Z,54.87
2023-04-02T01:31:33.332Z,53.62
2023-04-02T01:34:09.416Z,53.25
2023-04-02T01:37:16.678Z,53.06
2023-04-02T01:40:06.256Z,52.81
2023-04-02T01:42:46.893Z,54.02
2023-04-02T01:45:21.861Z,54.27
2023-04-02T01:47:53.534Z,53.64
2023-04-02T01:50:33.523Z,53.90
2023-04-02T01:53:10.042Z,53.85
2023-04-02T01:55:52.548Z,53.83
2023-04-02T01:58:29.108Z,55.07
2023-04-02T02:01:15.443Z,55.07
2023-04-02T02:03:47.540Z,55.97
2023-04-02T02:06:19.976Z,55.62
2023-04-02T02:09:08.991Z,55.41
2023-04-02T02:11:41.381Z,54.41
2023-04-02T02:14:19.808Z,56.09
2023-04-02T02:16:58.908Z,56.27
2023-04-02T02:19:51.546Z,54.58
2023-04-02T02:22:39.078Z,54.68
2023-04-02T02:25:19.637Z,54.29
2023-04-02T02:28:10.248Z,53.87
2023-04-02T02:30:53.163Z,54.04
2023-04-02T02:33:34.154Z,53.68
2023-04-02T02:36:13.015Z,54.16
2023-04-02T02:39:16.893Z,53.82
2023-04-02T02:42:02.770Z,56.59
2023-04-02T02:44:39.235Z,55.10
2023-04-02T02:47:17.870Z,56.47
2023-04-02T02:49:54.999Z,56.01
2023-04-02T02:52:32.259Z,56.06
2023-04-02T02:55:12.933Z,56.28
2023-04-02T02:58:06.838Z,56.37
2023-04-02T03:00:40.174Z,54.53
2023-04-02T03:03:22.198Z,53.85
2023-04-02T03:05:57.786Z,53.49
2023-04-02T03:08:46.487Z,52.93
2023-04-02T03:11:33.429Z,52.86
2023-04-02T03:14:22.965Z,52.77
2023-04-02T03:17:09.784Z,53.00
2023-04-02T03:19:52.745Z,53.52
2023-04-02T03:22:37.286Z,53.09
2023-04-02T03:25:52.335Z,53.79
2023-04-02T03:28:30.832Z,53.89
2023-04-02T03:31:08.986Z,54.54
2023-04-02T03:33:47.625Z,54.71
2023-04-02T03:36:31.122Z,54.92
2023-04-02T03:39:31.393Z,54.53
2023-04-02T03:42:21.113Z,54.34
2023-04-02T03:45:03.046Z,54.55
2023-04-02T03:47:42.877Z,55.59
2023-04-02T03:50:34.414Z,55.31
2023-04-02T03:53:06.272Z,55.76
2023-04-02T03:55:41.119Z,56.53
2023-04-02T03:58:44.134Z,56.49
2023-04-02T04:01:29.712Z,56.20
2023-04-02T04:04:13.378Z,57.25
2023-04-02T04:06:49.791Z,57.22
2023-04-02T04:09:37.635Z,56.97
2023-04-02T04:12:32.670Z,56.14
2023-04-02T04:15:22.526Z,56.37
2023-04-02T04:18:21.592Z,56.22
2023-04-02T04:21:22.759Z,55.27
2023-04-02T04:23:54.353Z,55.20
2023-04-02T04:26:53.441Z,55.36
2023-04-02T04:29:27.874Z,55.14
2023-04-02T04:32:29.896Z,54.99
2023-04-02T04:35:21.507Z,53.82
2023-04-02T04:38:14.404Z,54.01
2023-04-02T04:40:54.498Z,54.32
2023-04-02T04:43:42.099Z,53.89
2023-04-02T04:46:18.451Z,54.79
2023-04-02T04:49:05.402Z,55.75
2023-04-02T04:51:46.524Z,54.73
2023-04-02T04:54:18.588Z,55.57
2023-04-02T04:57:00.342Z,55.37
2023-04-02T05:00:00.736Z,56.52
2023-04-02T05:02:50.608Z,55.54
2023-04-02T05:05:30.672Z,55.90
2023-04-02T05:08:16.034Z,55.49
2023-04-02T05:10:55.045Z,55.39
2023-04-02T05:13:40.334Z,55.36
2023-04-02T05:16:39.937Z,55.51
2023-04-02T05:19:19.523Z,54.95
2023-04-02T05:22:12.374Z,55.08
2023-04-02T05:25:08.492Z,53.52
2023-04-02T05:28:18.817Z,51.77
2023-04-02T05:31:12.445Z,51.08
2023-04-02T05:33:49.336Z,51.29
2023-04-02T05:36:31.305Z,51.51
2023-04-02T05:39:03.197Z,50.90
2023-04-02T05:41:45.797Z,51.49
2023-04-02T05:44:34.339Z,51.28
2023-04-02T05:47:18.299Z,50.75
2023-04-02T05:50:10.820Z,50.91
2023-04-02T05:53:04.368Z,50.02
2023-04-02T05:55:51.111Z,49.95
2023-04-02T05:58:36.075Z,50.09
2023-04-02T06:01:43.014Z,49.55
2023-04-02T06:04:41.263Z,49.73
2023-04-02T06:07:24.132Z,49.25
2023-04-02T06:10:22.281Z,48.52
2023-04-02T06:13:07.604Z,47.87
2023-04-02T06:15:39.310Z,47.55
2023-04-02T06:18:17.028Z,47.20
2023-04-02T06:20:48.618Z,47.53
2023-04-02T06:23:51.519Z,47.00
2023-04-02T06:26:41.402Z,47.08
2023-04-02T06:29:39.665Z,46.01
2023-04-02T06:32:12.715Z,46.96
2023-04-02T06:34:44.788Z,47.15
2023-04-02T06:37:38.804Z,46.61
2023-04-02T06:40:44.005Z,46.25
2023-04-02T06:43:39.195Z,45.16
2023-04-02T06:46:43.687Z,45.19
2023-04-02T06:50:06.639Z,44.43
2023-04-02T06:52:48.734Z,44.23
2023-04-02T06:55:20.378Z,43.38
2023-04-02T06:57:51.968Z,42.95
2023-04-02T07:00:51.241Z,43.18
2023-04-02T07:03:31.565Z,43.12
2023-04-02T07:06:07.451Z,41.79
2023-04-02T07:08:39.017Z,41.53
2023-04-02T07:11:22.244Z,41.20
2023-04-02T07:13:53.914Z,40.95
2023-04-02T07:16:27.996Z,39.95
2023-04-02T07:19:00.368Z,39.01
2023-04-02T07:21:32.040Z,39.47
2023-04-02T07:24:03.824Z,38.35
2023-04-02T07:26:35.433Z,38.40
2023-04-02T07:29:09.347Z,37.89
2023-04-02T07:31:41.247Z,39.39
2023-04-02T07:34:12.899Z,39.05
2023-04-02T07:36:44.470Z,38.82
2023-04-02T07:39:15.954Z,38.81
2023-04-02T07:41:53.309Z,38.61
2023-04-02T07:44:24.934Z,39.86
2023-04-02T07:46:56.576Z,39.52
2023-04-02T07:49:28.498Z,40.50
2023-04-02T07:52:00.082Z,39.62
2023-04-02T07:54:31.628Z,39.23
2023-04-02T07:57:03.431Z,39.80
2023-04-02T07:59:34.991Z,41.72
2023-04-02T08:02:06.886Z,39.73
2023-04-02T08:04:38.580Z,39.90
2023-04-02T08:07:10.105Z,39.85
2023-04-02T08:09:41.619Z,40.40
2023-04-02T08:12:13.949Z,39.97
2023-04-02T08:14:47.540Z,39.61
2023-04-02T08:17:19.137Z,42.63
2023-04-02T08:19:55.167Z,39.19
2023-04-02T08:22:30.912Z,37.24
2023-04-02T08:25:02.442Z,36.23
2023-04-02T08:27:34.159Z,35.03
2023-04-02T08:30:09.563Z,37.01
2023-04-02T08:32:41.572Z,38.71
2023-04-02T08:35:16.703Z,39.52
2023-04-02T08:37:50.432Z,39.37
2023-04-02T08:40:39.045Z,39.96
2023-04-02T08:43:38.620Z,38.90
2023-04-02T08:46:30.811Z,38.62
2023-04-02T08:49:15.074Z,37.45
2023-04-02T08:51:50.808Z,38.13
2023-04-02T08:54:34.914Z,37.89
2023-04-02T08:57:49.208Z,38.81
2023-04-02T09:00:49.021Z,37.08
2023-04-02T09:03:37.311Z,33.98
2023-04-02T09:06:14.719Z,34.29
2023-04-02T09:08:50.695Z,37.06
2023-04-02T09:11:37.495Z,34.67
2023-04-02T09:14:24.596Z,36.50
2023-04-02T09:17:04.830Z,33.93
2023-04-02T09:19:41.613Z,38.37
2023-04-02T09:22:33.452Z,36.25
2023-04-02T09:25:14.777Z,36.12
2023-04-02T09:27:53.700Z,35.73
2023-04-02T09:30:29.703Z,33.87
2023-04-02T09:33:09.523Z,36.47
2023-04-02T09:35:52.923Z,32.72
2023-04-02T09:38:32.428Z,33.87
2023-04-02T09:41:19.265Z,36.65
2023-04-02T09:44:39.157Z,38.11
2023-04-02T09:47:26.360Z,35.60
2023-04-02T09:50:33.988Z,36.13
2023-04-02T09:53:34.128Z,32.59
2023-04-02T09:56:38.044Z,34.33
2023-04-02T09:59:12.606Z,37.14
2023-04-02T10:01:47.901Z,37.74
2023-04-02T10:04:37.379Z,34.30
2023-04-02T10:07:36.450Z,34.39
2023-04-02T10:10:36.222Z,33.86
2023-04-02T10:13:22.602Z,35.25
2023-04-02T10:16:35.079Z,32.40
2023-04-02T10:19:27.676Z,35.96
2023-04-02T10:22:03.028Z,35.91
2023-04-02T10:24:34.722Z,33.53
2023-04-02T10:27:22.589Z,33.50
2023-04-02T10:30:22.868Z,33.89
2023-04-02T10:33:25.103Z,34.72
2023-04-02T10:36:22.396Z,33.28
2023-04-02T10:38:59.388Z,33.83
2023-04-02T10:41:57.355Z,34.75
2023-04-02T10:44:50.065Z,34.19
2023-04-02T10:47:49.187Z,34.34
2023-04-02T10:50:50.001Z,36.23
2023-04-02T10:53:36.786Z,33.18
2023-04-02T10:56:12.498Z,34.69
2023-04-02T10:59:02.430Z,32.97
2023-04-02T11:01:35.708Z,33.83
2023-04-02T11:04:20.575Z,29.61
2023-04-02T11:07:29.517Z,31.31
2023-04-02T11:10:02.591Z,29.05
2023-04-02T11:12:48.851Z,29.07
2023-04-02T11:15:21.219Z,27.01
2023-04-02T11:18:02.645Z,30.46
2023-04-02T11:21:25.068Z,32.76
2023-04-02T11:24:02.771Z,34.05
2023-04-02T11:26:44.590Z,32.44
2023-04-02T11:29:31.982Z,32.18
2023-04-02T11:32:21.161Z,35.21
2023-04-02T11:35:05.107Z,33.56
2023-04-02T11:37:46.077Z,33.36
2023-04-02T11:40:17.612Z,33.21
2023-04-02T11:42:54.669Z,31.28
2023-04-02T11:45:26.457Z,30.64
2023-04-02T11:48:01.584Z,32.00
2023-04-02T11:50:39.818Z,34.33
2023-04-02T11:53:11.666Z,32.35
2023-04-02T11:55:46.374Z,32.78
2023-04-02T11:58:51.796Z,31.85
2023-04-02T12:02:03.940Z,29.76
2023-04-02T12:05:25.538Z,32.97
2023-04-02T12:08:47.208Z,30.51
2023-04-02T12:11:39.134Z,32.75
2023-04-02T12:14:41.225Z,29.17
2023-04-02T12:17:21.776Z,30.93
2023-04-02T12:19:58.770Z,31.28
2023-04-02T12:22:33.332Z,29.43
2023-04-02T12:25:18.824Z,30.36
2023-04-02T12:28:09.325Z,29.87
2023-04-02T12:30:41.793Z,29.80
2023-04-02T12:33:19.651Z,30.63
2023-04-02T12:36:00.822Z,29.60
2023-04-02T12:38:51.240Z,32.88
2023-04-02T12:41:36.110Z,29.84
2023-04-02T12:44:20.059Z,32.57
2023-04-02T12:46:52.591Z,29.33
2023-04-02T12:49:43.147Z,28.77
2023-04-02T12:52:18.785Z,29.33
2023-04-02T12:54:56.012Z,27.89
2023-04-02T12:57:27.575Z,28.93
2023-04-02T13:00:20.104Z,28.96
2023-04-02T13:03:16.248Z,28.99
2023-04-02T13:05:56.219Z,33.16
2023-04-02T13:08:39.340Z,31.97
2023-04-02T13:11:10.970Z,27.20
2023-04-02T13:13:45.992Z,28.00
2023-04-02T13:16:17.685Z,30.84
2023-04-02T13:18:50.327Z,28.54
2023-04-02T13:21:30.152Z,26.89
2023-04-02T13:24:01.681Z,26.83
2023-04-02T13:26:33.587Z,30.13
2023-04-02T13:29:17.692Z,29.48
2023-04-02T13:31:51.009Z,27.64
2023-04-02T13:34:22.784Z,25.42
2023-04-02T13:36:55.433Z,24.97
2023-04-02T13:39:27.202Z,24.24
2023-04-02T13:42:02.745Z,25.64
2023-04-02T13:44:37.567Z,29.88
2023-04-02T13:47:14.669Z,32.81
2023-04-02T13:49:46.191Z,35.50
2023-04-02T13:52:17.798Z,32.80
2023-04-02T13:54:54.174Z,31.49
2023-04-02T13:57:25.837Z,29.05
2023-04-02T13:59:57.424Z,30.63
2023-04-02T14:02:29.249Z,30.30
2023-04-02T14:05:38.304Z,29.24
2023-04-02T14:08:35.012Z,27.49
2023-04-02T14:11:34.335Z,25.92
2023-04-02T14:14:08.751Z,27.48
2023-04-02T14:17:04.204Z,26.16
2023-04-02T14:20:09.658Z,26.24
2023-04-02T14:23:21.370Z,29.01
2023-04-02T14:26:22.589Z,29.14
2023-04-02T14:29:18.242Z,33.26
2023-04-02T14:32:04.112Z,33.15
2023-04-02T14:34:50.972Z,34.66
2023-04-02T14:38:14.079Z,31.99
2023-04-02T14:41:09.163Z,36.00
2023-04-02T14:43:48.271Z,33.31
2023-04-02T14:46:24.537Z,33.14
2023-04-02T14:49:12.071Z,33.31
2023-04-02T14:51:51.130Z,34.97
2023-04-02T14:54:36.824Z,34.48
2023-04-02T14:57:37.436Z,33.60
2023-04-02T15:00:45.798Z,32.37
2023-04-02T15:03:25.225Z,32.82
2023-04-02T15:06:11.627Z,35.46
2023-04-02T15:09:02.513Z,33.32
2023-04-02T15:11:50.994Z,34.31
2023-04-02T15:14:35.350Z,34.78
2023-04-02T15:17:12.231Z,34.81
2023-04-02T15:19:45.769Z,35.03
2023-04-02T15:22:47.634Z,36.40
2023-04-02T15:25:47.352Z,35.76
2023-04-02T15:28:39.796Z,35.79
2023-04-02T15:31:18.809Z,38.42
2023-04-02T15:34:17.616Z,39.86
2023-04-02T15:37:08.762Z,40.31
2023-04-02T15:40:17.434Z,39.87
2023-04-02T15:43:08.688Z,41.59
2023-04-02T15:45:40.218Z,43.73
2023-04-02T15:49:00.114Z,44.78
2023-04-02T15:52:05.705Z,45.16
2023-04-02T15:55:06.975Z,45.02
2023-04-02T15:58:12.505Z,45.47
2023-04-02T16:01:04.478Z,45.12
2023-04-02T16:04:07.890Z,44.13
2023-04-02T16:06:57.506Z,43.29
2023-04-02T16:09:48.590Z,43.11
2023-04-02T16:12:21.035Z,41.36
2023-04-02T16:15:05.722Z,41.80
2023-04-02T16:17:53.175Z,40.74
2023-04-02T16:20:34.952Z,40.64
2023-04-02T16:23:17.542Z,40.58
2023-04-02T16:26:21.904Z,41.83
2023-04-02T16:29:35.938Z,40.81
2023-04-02T16:32:49.142Z,40.34
2023-04-02T16:35:45.296Z,40.52
2023-04-02T16:38:50.433Z,41.10
2023-04-02T16:42:14.274Z,40.39
2023-04-02T16:45:00.336Z,40.46
2023-04-02T16:47:59.116Z,40.38
2023-04-02T16:50:40.726Z,40.66
2023-04-02T16:53:58.334Z,40.50
2023-04-02T16:56:57.999Z,40.64
2023-04-02T16:59:46.818Z,41.31
2023-04-02T17:03:18.533Z,40.82
2023-04-02T17:06:06.217Z,41.12
2023-04-02T17:09:02.861Z,41.88
2023-04-02T17:11:48.386Z,42.12
2023-04-02T17:14:30.880Z,42.39
2023-04-02T17:17:04.967Z,42.40
2023-04-02T17:19:36.444Z,44.00
2023-04-02T17:22:20.419Z,45.01
2023-04-02T17:25:03.922Z,45.43
2023-04-02T17:27:42.968Z,45.75
2023-04-02T17:30:49.307Z,46.07
2023-04-02T17:33:22.905Z,46.54
2023-04-02T17:36:00.460Z,46.64
2023-04-02T17:38:53.244Z,46.27
2023-04-02T17:41:55.190Z,46.73
2023-04-02T17:44:58.124Z,46.93
2023-04-02T17:47:57.789Z,47.75
2023-04-02T17:50:58.947Z,47.75
2023-04-02T17:53:58.449Z,49.24
2023-04-02T17:56:42.023Z,49.07
2023-04-02T18:00:01.568Z,51.86
2023-04-02T18:02:39.721Z,52.78
2023-04-02T18:05:31.760Z,54.74
2023-04-02T18:08:27.378Z,56.66
2023-04-02T18:11:33.902Z,57.93
2023-04-02T18:14:43.884Z,59.26
2023-04-02T18:17:46.056Z,60.43
2023-04-02T18:20:39.136Z,60.96
2023-04-02T18:23:38.933Z,61.37
2023-04-02T18:26:28.979Z,62.04
2023-04-02T18:29:29.184Z,63.06
2023-04-02T18:32:35.418Z,62.15
2023-04-02T18:35:31.822Z,61.85
2023-04-02T18:38:28.768Z,60.58
2023-04-02T18:41:23.478Z,60.77
2023-04-02T18:44:34.960Z,60.66
2023-04-02T18:47:24.789Z,60.24
2023-04-02T18:50:36.392Z,61.67
2023-04-02T18:53:17.842Z,61.09
2023-04-02T18:56:01.718Z,61.23
2023-04-02T18:58:57.037Z,61.04
2023-04-02T19:01:49.443Z,60.70
2023-04-02T19:04:32.670Z,61.42
2023-04-02T19:07:14.520Z,61.65
2023-04-02T19:09:50.542Z,62.32
2023-04-02T19:12:24.660Z,61.97
2023-04-02T19:14:59.122Z,61.65
2023-04-02T19:17:41.789Z,61.42
2023-04-02T19:20:29.304Z,61.29
2023-04-02T19:23:47.672Z,60.45
2023-04-02T19:26:56.554Z,60.42
2023-04-02T19:29:46.261Z,60.95
2023-04-02T19:32:45.968Z,61.70
2023-04-02T19:35:29.407Z,63.04
2023-04-02T19:38:45.412Z,63.08
2023-04-02T19:41:47.829Z,62.81
2023-04-02T19:44:20.924Z,63.54
2023-04-02T19:46:55.145Z,64.48
2023-04-02T19:49:32.729Z,71.79
2023-04-02T19:52:04.630Z,73.36
2023-04-02T19:54:38.202Z,74.10
2023-04-02T19:57:15.787Z,73.99
2023-04-02T19:59:47.403Z,74.16
2023-04-02T20:02:19.451Z,72.25
2023-04-02T20:04:50.974Z,72.40
2023-04-02T20:07:22.768Z,71.94
2023-04-02T20:09:54.304Z,71.26
2023-04-02T20:12:25.867Z,64.79
2023-04-02T20:14:57.397Z,62.87
2023-04-02T20:17:29.224Z,62.25
2023-04-02T20:20:00.993Z,61.96
2023-04-02T20:22:32.534Z,61.07
2023-04-02T20:25:04.437Z,61.16
2023-04-02T20:27:36.070Z,61.78
2023-04-02T20:30:08.383Z,61.54
2023-04-02T20:32:40.645Z,61.90
2023-04-02T20:35:12.440Z,61.36
2023-04-02T20:37:44.030Z,60.94
2023-04-02T20:40:15.621Z,60.72
2023-04-02T20:42:47.160Z,60.94
2023-04-02T20:45:18.927Z,61.41
2023-04-02T20:47:50.843Z,61.79
2023-04-02T20:50:22.422Z,60.83
2023-04-02T20:52:54.717Z,60.23
2023-04-02T20:55:26.292Z,61.14
2023-04-02T20:57:57.796Z,62.91
2023-04-02T21:00:31.358Z,59.83
2023-04-02T21:03:02.991Z,60.83
2023-04-02T21:05:34.576Z,60.21
2023-04-02T21:08:06.385Z,60.93
2023-04-02T21:10:39.104Z,61.09
2023-04-02T21:13:10.749Z,62.31
2023-04-02T21:15:43.134Z,62.99
2023-04-02T21:18:17.777Z,64.18
2023-04-02T21:21:04.385Z,63.28
2023-04-02T21:23:39.233Z,63.04
2023-04-02T21:26:17.553Z,62.36
2023-04-02T21:28:49.182Z,63.21
2023-04-02T21:31:35.947Z,61.98
2023-04-02T21:34:17.021Z,62.49
2023-04-02T21:36:50.507Z,63.15
2023-04-02T21:39:24.092Z,63.96
2023-04-02T21:41:55.928Z,66.33
2023-04-02T21:44:27.981Z,66.23
2023-04-02T21:46:59.875Z,65.21
2023-04-02T21:49:33.540Z,64.77
2023-04-02T21:52:05.274Z,65.72
2023-04-02T21:54:36.800Z,65.03
2023-04-02T21:57:08.351Z,62.49
2023-04-02T21:59:39.916Z,62.66
2023-04-02T22:02:12.109Z,62.47
2023-04-02T22:04:43.670Z,62.37
2023-04-02T22:07:18.230Z,62.42
2023-04-02T22:09:49.855Z,62.07
2023-04-02T22:12:21.575Z,61.53
2023-04-02T22:14:53.443Z,63.02
2023-04-02T22:17:25.262Z,61.68
2023-04-02T22:19:56.926Z,61.24
2023-04-02T22:22:31.318Z,62.31
2023-04-02T22:25:03.524Z,61.85
2023-04-02T22:27:35.016Z,60.95
2023-04-02T22:30:07.792Z,62.61
2023-04-02T22:32:40.240Z,62.56
2023-04-02T22:35:11.938Z,61.69
2023-04-02T22:37:43.476Z,61.50
2023-04-02T22:40:16.081Z,62.46
2023-04-02T22:42:48.885Z,62.18
2023-04-02T22:45:21.425Z,62.23
2023-04-02T22:47:55.113Z,62.42
2023-04-02T22:50:27.155Z,62.53
2023-04-02T22:52:58.661Z,62.43
2023-04-02T22:55:30.697Z,62.22
2023-04-02T22:58:02.264Z,62.73
2023-04-02T23:00:34.439Z,63.30
2023-04-02T23:03:08.856Z,63.60
2023-04-02T23:05:42.194Z,62.99
2023-04-02T23:08:13.714Z,64.94
2023-04-02T23:10:45.342Z,64.91
2023-04-02T23:13:16.858Z,63.66
2023-04-02T23:15:48.389Z,62.58
2023-04-02T23:18:19.994Z,62.94
2023-04-02T23:20:51.546Z,62.80
2023-04-02T23:23:23.292Z,62.93
2023-04-02T23:26:11.719Z,62.11
2023-04-02T23:28:44.106Z,64.03
2023-04-02T23:31:20.382Z,62.70
2023-04-02T23:33:52.805Z,63.51
2023-04-02T23:36:34.459Z,63.41
2023-04-02T23:39:12.997Z,61.48
2023-04-02T23:41:44.505Z,61.91
2023-04-02T23:44:16.253Z,62.76
2023-04-02T23:46:47.889Z,63.55
2023-04-02T23:49:24.327Z,62.12
2023-04-02T23:51:56.011Z,62.66
2023-04-02T23:54:27.944Z,62.32
2023-04-02T23:56:59.453Z,63.04
2023-04-02T23:59:31.105Z,61.89
